EmailTwitter


Observations de surface / Québec / CYUL (71627)

Régions: Québec | Canada | États-Unis | Europe | France | UK | Ailleurs
Station
Affichage
Infos & localisation pour CYUL (71627) | Aide pour décoder les METARs

Observations prises le 2017-10-23 à 15H00 UTC à MONTREAL INTL A, QB (CYUL)

Etat du ciel: partiellement nuageux.

Température: 18.0 Celsius

Point de rosée: 9.0 Celsius

Humidité relative: 56%

Vents: Variable à 7 km/h ou 4 noeuds.

Pression au niveau moyen de la mer: 102.11 kilopascals.

Calage altimétrique: 102.10 kilopascals ou 30.15 pouces de mercure.

Visibilité horizontale: 30.00 milles terrestres ou 48.00 kilomètres.

Hauteur du plafond: 7620 mètres ( 25000 pieds ).

Observation METAR:

CYUL 231500Z VRB04KT 30SM FEW190 BKN250 18/09 A3015 RMK AC1CI7 AC TR SLP211

DENSITY ALT 300FT=